Aviation Digital Data Service (ADDS)

Output produced by TAFs form (2020 UTC 18 February 2018)
found at http://aviationweather.gov/adds/tafs/
 
KJQF 181950Z 07006KT 10SM CLR 17/M01 A3033